Decoded Metar for KPWT (BREMERTON NTNL in WA, USA) (IATA:PWT) | Meteo·Mobile Aviation Weather
aviador You're here:

KPWT Decoded Metar

BREMERTON NTNL in WA, USA
Report Time2018-09-21 09:56:00
UTC Time2018-09-21 10:45:12
Flight Rules mvfr MVFR
Wind180° at 07 kt
W.Decomp.*RWY 20: 5.4 kt HW 4.5 kt LCW
W.Rank180° ranks 3
Current wind is below 180° avg. (7.7)
Visibility9999 m
Phenomena:N/A
Clouds:Overcast 013 Hf
Expected CloudBase > 1,600 ft AGL from Temp-Dew spread
Ceiling1,300 ft
Temp14°C (ISA -0)
Dew Point10°C (77% RH)
AAT11.5°C
QNH1017 hPa
Density Alt509 ft
Elevation482 ft
Report Wrong Elevation
Raw Report
KPWT 210956Z AUTO 18007KT 10SM OVC013 14/10 A3003 RMK AO2 SLP185
T01390100=

Extra information for KPWT:More info

Metar Taf Metar & Taf Last 4 Metars F.Rules Stats Wind Profile Meteogram Temp Stats Airport Information Weather charts Add Link Nearby VenuesMetar ALERT Operation Metar Decoded Social comments

AIRNAV info for KPWT